createdAt,value
2019-01-05T00:00:13.946Z,41
2019-01-05T00:01:02.729Z,40.9
2019-01-05T00:01:53.334Z,40.6
2019-01-05T00:02:44.233Z,40.2
2019-01-05T00:03:34.008Z,40
2019-01-05T00:04:23.708Z,40.8
2019-01-05T00:05:13.851Z,41.1
2019-01-05T00:06:04.373Z,41.3
2019-01-05T00:06:54.428Z,41.2
2019-01-05T00:07:44.523Z,41
2019-01-05T00:08:34.273Z,40.8
2019-01-05T00:09:24.069Z,40.4
2019-01-05T00:10:14.335Z,39.9
2019-01-05T00:11:04.221Z,40.6
2019-01-05T00:11:55.073Z,41.2
2019-01-05T00:12:44.294Z,41.4
2019-01-05T00:13:34.943Z,41.4
2019-01-05T00:14:23.925Z,41.4
2019-01-05T00:15:16.415Z,41.3
2019-01-05T00:33:28.476Z,40.3
2019-01-05T00:34:18.804Z,40.5
2019-01-05T00:35:07.692Z,41
2019-01-05T00:35:57.237Z,41.3
2019-01-05T00:36:47.307Z,41.4
2019-01-05T00:37:38.516Z,41.3
2019-01-05T00:38:28.826Z,41.2
2019-01-05T00:39:17.825Z,40.9
2019-01-05T00:40:08.714Z,40.6
2019-01-05T00:40:58.721Z,40.1
2019-01-05T00:41:47.391Z,40.8
2019-01-05T00:42:38.861Z,41.3
2019-01-05T00:43:28.368Z,41.4
2019-01-05T00:44:17.851Z,41.5
2019-01-05T00:45:09.281Z,41.5
2019-01-05T00:45:59.306Z,41.4
2019-01-05T00:46:48.564Z,41.1
2019-01-05T00:47:38.916Z,40.7
2019-01-05T00:48:29.533Z,40.3
2019-01-05T00:49:18.725Z,40.6
2019-01-05T00:50:08.811Z,41.1
2019-01-05T00:50:59.213Z,41.4
2019-01-05T00:51:49.773Z,41.6
2019-01-05T00:52:38.713Z,41.6
2019-01-05T00:53:29.033Z,41.5
2019-01-05T00:54:19.906Z,41.3
2019-01-05T00:55:09.773Z,41
2019-01-05T00:56:00.063Z,40.6
2019-01-05T00:56:49.836Z,41
2019-01-05T00:57:40.123Z,41.5
2019-01-05T00:58:29.369Z,41.8
2019-01-05T00:59:20.317Z,42
2019-01-05T01:00:10.045Z,42.1
2019-01-05T01:01:00.120Z,42.1
2019-01-05T01:01:50.158Z,41.8
2019-01-05T01:02:40.807Z,41.4
2019-01-05T01:03:28.615Z,41.1
2019-01-05T01:04:20.265Z,40.6
2019-01-05T01:05:09.285Z,40.1
2019-01-05T01:06:00.430Z,39.8
2019-01-05T01:06:50.497Z,40.8
2019-01-05T01:07:39.953Z,41.4
2019-01-05T01:08:30.371Z,41.9
2019-01-05T01:09:36.302Z,42.2
2019-01-05T01:10:11.040Z,42.3
2019-01-05T01:11:01.025Z,42.3
2019-01-05T01:11:50.762Z,42
2019-01-05T01:12:39.762Z,41.7
2019-01-05T01:13:30.952Z,41.3
2019-01-05T01:14:21.024Z,41
2019-01-05T01:15:10.517Z,40.5
2019-01-05T01:16:01.452Z,40.1
2019-01-05T01:16:49.514Z,40.3
2019-01-05T01:17:40.694Z,41.1
2019-01-05T01:18:32.140Z,41.7
2019-01-05T01:19:21.619Z,42.1
2019-01-05T01:20:11.766Z,42.3
2019-01-05T01:21:01.749Z,42.4
2019-01-05T01:21:52.004Z,42.2
2019-01-05T01:22:42.089Z,41.9
2019-01-05T01:23:31.624Z,41.4
2019-01-05T01:24:20.602Z,41.1
2019-01-05T01:25:12.019Z,40.6
2019-01-05T01:26:00.903Z,40.1
2019-01-05T01:26:51.788Z,39.6
2019-01-05T01:27:42.156Z,40.5
2019-01-05T01:28:30.951Z,41.3
2019-01-05T01:29:21.759Z,41.7
2019-01-05T01:30:13.267Z,42.1
2019-01-05T01:31:02.903Z,42.3
2019-01-05T01:31:52.748Z,42.3
2019-01-05T01:32:42.328Z,42.1
2019-01-05T01:33:32.543Z,41.9
2019-01-05T01:34:22.898Z,41.5
2019-01-05T01:35:12.475Z,41.2
2019-01-05T01:36:02.975Z,40.8
2019-01-05T01:36:52.442Z,40.3
2019-01-05T01:37:42.513Z,39.8
2019-01-05T01:38:32.603Z,39.9
2019-01-05T01:39:22.348Z,40.9
2019-01-05T01:40:12.993Z,41.6
2019-01-05T01:41:03.280Z,42.1
2019-01-05T01:41:53.383Z,42.4
2019-01-05T01:42:42.635Z,42.6
2019-01-05T01:43:33.460Z,42.5
2019-01-05T01:44:23.062Z,42.3
2019-01-05T01:45:12.227Z,41.9
2019-01-05T01:46:03.431Z,41.6
2019-01-05T01:46:53.130Z,41.3
2019-01-05T01:47:42.426Z,40.8
2019-01-05T01:48:34.055Z,40.3
2019-01-05T01:49:23.867Z,40.8
2019-01-05T01:50:14.440Z,41.6
2019-01-05T01:51:03.470Z,42.1
2019-01-05T01:51:52.930Z,42.4
2019-01-05T01:52:44.407Z,42.6
2019-01-05T01:53:34.959Z,42.8
2019-01-05T01:54:24.479Z,42.6
2019-01-05T01:55:13.762Z,42.4
2019-01-05T01:56:04.002Z,42.1
2019-01-05T01:56:53.542Z,41.8
2019-01-05T01:57:43.379Z,41.5
2019-01-05T01:58:34.531Z,41.1
2019-01-05T01:59:24.557Z,40.7
2019-01-05T02:00:14.321Z,40.3
2019-01-05T02:01:05.005Z,40.8
2019-01-05T02:01:53.634Z,41.6
2019-01-05T02:02:44.477Z,42.1
2019-01-05T02:03:34.869Z,42.4
2019-01-05T02:04:23.774Z,42.6
2019-01-05T02:05:14.681Z,42.7
2019-01-05T02:06:05.250Z,42.6
2019-01-05T02:06:55.378Z,42.3
2019-01-05T02:07:44.861Z,42
2019-01-05T02:08:35.771Z,41.7
2019-01-05T02:09:25.264Z,41.5
2019-01-05T02:10:15.071Z,41.2
2019-01-05T02:11:05.646Z,40.8
2019-01-05T02:11:55.671Z,40.8
2019-01-05T02:12:45.164Z,41.4
2019-01-05T02:13:36.144Z,41.8
2019-01-05T02:14:24.507Z,42
2019-01-05T02:15:15.664Z,42.2
2019-01-05T02:16:05.694Z,42.3
2019-01-05T02:16:55.706Z,42.2
2019-01-05T02:17:45.793Z,42
2019-01-05T02:18:37.417Z,41.8
2019-01-05T02:19:24.798Z,41.4
2019-01-05T02:20:15.753Z,41.1
2019-01-05T02:21:04.975Z,40.6
2019-01-05T02:21:55.763Z,40.3
2019-01-05T02:22:46.111Z,41.1
2019-01-05T02:23:35.932Z,41.6
2019-01-05T02:24:26.528Z,42
2019-01-05T02:25:15.767Z,42.2
2019-01-05T02:26:06.109Z,42.3
2019-01-05T02:26:56.246Z,42.3
2019-01-05T02:27:46.793Z,42.1
2019-01-05T02:28:35.750Z,41.9
2019-01-05T02:29:26.038Z,41.6
2019-01-05T02:30:16.562Z,41.3
2019-01-05T02:31:06.366Z,40.9
2019-01-05T02:31:56.153Z,40.4
2019-01-05T02:32:46.612Z,40.8
2019-01-05T02:33:37.175Z,41.4
2019-01-05T02:34:27.274Z,41.9
2019-01-05T02:35:17.073Z,42.3
2019-01-05T02:36:06.640Z,42.5
2019-01-05T02:36:56.120Z,42.6
2019-01-05T02:37:47.044Z,42.5
2019-01-05T02:38:35.958Z,42.3
2019-01-05T02:39:27.771Z,41.9
2019-01-05T02:40:16.865Z,41.4
2019-01-05T02:41:07.533Z,41.1
2019-01-05T02:41:57.610Z,40.6
2019-01-05T02:42:48.390Z,40.1
2019-01-05T02:43:37.369Z,40.1
2019-01-05T02:44:26.828Z,41.1
2019-01-05T02:45:18.054Z,41.7
2019-01-05T02:46:07.589Z,42.1
2019-01-05T02:46:57.785Z,42.4
2019-01-05T02:47:47.709Z,42.6
2019-01-05T02:48:37.384Z,42.6
2019-01-05T02:49:28.614Z,42.4
2019-01-05T02:50:17.829Z,42
2019-01-05T02:51:07.248Z,41.6
2019-01-05T02:51:59.288Z,41.3
2019-01-05T02:52:48.818Z,40.9
2019-01-05T02:53:38.574Z,40.4
2019-01-05T02:54:27.774Z,40.9
2019-01-05T02:55:17.801Z,41.6
2019-01-05T02:56:07.846Z,42.1
2019-01-05T02:56:58.213Z,42.5
2019-01-05T02:57:49.501Z,42.8
2019-01-05T02:58:38.325Z,42.8
2019-01-05T02:59:28.333Z,42.7
2019-01-05T03:00:18.728Z,42.4
2019-01-05T03:01:09.094Z,42.1
2019-01-05T03:01:57.701Z,41.8
2019-01-05T03:02:48.671Z,41.5
2019-01-05T03:03:39.037Z,41.1
2019-01-05T03:04:28.995Z,40.8
2019-01-05T03:05:18.543Z,40.8
2019-01-05T03:06:08.830Z,41.6
2019-01-05T03:06:58.363Z,42.1
2019-01-05T03:07:49.638Z,42.4
2019-01-05T03:08:39.579Z,42.6
2019-01-05T03:09:29.667Z,42.6
2019-01-05T03:10:18.859Z,42.5
2019-01-05T03:11:07.775Z,42.3
2019-01-05T03:11:59.532Z,42
2019-01-05T03:12:50.415Z,41.8
2019-01-05T03:13:39.114Z,41.6
2019-01-05T03:14:30.077Z,41.3
2019-01-05T03:15:20.017Z,40.9
2019-01-05T03:16:09.525Z,41.3
2019-01-05T03:16:58.517Z,41.8
2019-01-05T03:17:50.527Z,42.1
2019-01-05T03:18:40.602Z,42.4
2019-01-05T03:19:29.842Z,42.5
2019-01-05T03:20:19.853Z,42.5
2019-01-05T03:21:10.463Z,42.4
2019-01-05T03:22:00.197Z,42.2
2019-01-05T03:22:50.251Z,42
2019-01-05T03:23:40.701Z,41.8
2019-01-05T03:24:29.262Z,41.6
2019-01-05T03:25:19.643Z,41.4
2019-01-05T03:26:09.659Z,41.1
2019-01-05T03:27:00.544Z,40.8
2019-01-05T03:27:50.379Z,41.5
2019-01-05T03:28:40.648Z,42.1
2019-01-05T03:29:29.891Z,42.4
2019-01-05T03:30:21.470Z,42.6
2019-01-05T03:31:11.960Z,42.7
2019-01-05T03:32:00.255Z,42.6
2019-01-05T03:32:51.542Z,42.4
2019-01-05T03:33:40.799Z,42.1
2019-01-05T03:34:31.048Z,41.8
2019-01-05T03:35:20.845Z,41.5
2019-01-05T03:36:10.872Z,41.2
2019-01-05T03:37:00.721Z,40.8
2019-01-05T03:37:51.301Z,40.9
2019-01-05T03:38:40.808Z,41.8
2019-01-05T03:39:30.086Z,42.4
2019-01-05T03:40:22.513Z,42.9
2019-01-05T03:41:11.011Z,43.3
2019-01-05T03:42:01.567Z,43.5
2019-01-05T03:42:51.958Z,43.6
2019-01-05T03:43:41.409Z,43.5
2019-01-05T03:44:31.736Z,43.3
2019-01-05T03:45:21.525Z,43.1
2019-01-05T03:46:11.112Z,42.8
2019-01-05T03:47:01.660Z,42.6
2019-01-05T03:47:50.810Z,42.3
2019-01-05T03:48:42.593Z,42.1
2019-01-05T03:49:31.541Z,42
2019-01-05T03:50:22.690Z,41.9
2019-01-05T03:51:12.676Z,41.9
2019-01-05T03:52:00.865Z,41.9
2019-01-05T03:52:51.733Z,41.9
2019-01-05T03:53:41.779Z,41.9
2019-01-05T03:54:32.378Z,41.8
2019-01-05T03:55:23.044Z,41.8
2019-01-05T03:56:11.937Z,41.8
2019-01-05T03:57:02.280Z,41.8
2019-01-05T03:57:52.658Z,41.8
2019-01-05T03:58:41.820Z,41.8
2019-01-05T03:59:32.985Z,41.8
2019-01-05T04:00:22.312Z,41.8
2019-01-05T04:01:13.399Z,41.9
2019-01-05T04:02:02.894Z,42
2019-01-05T04:02:53.031Z,42.1
2019-01-05T04:03:43.245Z,42.3
2019-01-05T04:04:33.906Z,42.3
2019-01-05T04:05:22.892Z,42.4
2019-01-05T04:06:12.629Z,42.4
2019-01-05T04:07:02.983Z,42.4
2019-01-05T04:07:53.088Z,42.4
2019-01-05T04:08:43.117Z,42.4
2019-01-05T04:09:33.236Z,42.5
2019-01-05T04:10:23.192Z,42.6
2019-01-05T04:11:12.389Z,42.7
2019-01-05T04:12:04.142Z,42.7
2019-01-05T04:12:52.572Z,42.7
2019-01-05T04:13:44.221Z,42.6
2019-01-05T04:14:32.935Z,42.4
2019-01-05T04:15:24.343Z,42.4
2019-01-05T04:16:13.843Z,42.3
2019-01-05T04:17:03.723Z,42.2
2019-01-05T04:17:54.303Z,42.2
2019-01-05T04:18:43.471Z,42.1
2019-01-05T04:19:34.363Z,42.1
2019-01-05T04:20:22.473Z,42.1
2019-01-05T04:21:13.376Z,42
2019-01-05T04:22:03.986Z,42
2019-01-05T04:22:54.539Z,41.9
2019-01-05T04:23:43.809Z,41.9
2019-01-05T04:24:34.709Z,42
2019-01-05T04:25:25.502Z,42.1
2019-01-05T04:26:13.723Z,42.2
2019-01-05T04:27:04.884Z,42.3
2019-01-05T04:27:54.653Z,42.3
2019-01-05T04:28:44.169Z,42.3
2019-01-05T04:29:34.796Z,42.3
2019-01-05T04:30:26.440Z,42.3
2019-01-05T04:31:15.174Z,42.3
2019-01-05T04:32:03.309Z,42.3
2019-01-05T04:32:55.283Z,42.3
2019-01-05T04:33:44.218Z,42.3
2019-01-05T04:34:34.902Z,42.3
2019-01-05T04:35:24.609Z,42.3
2019-01-05T04:36:14.734Z,42.4
2019-01-05T04:37:05.020Z,42.4
2019-01-05T04:37:55.164Z,42.4
2019-01-05T04:38:45.095Z,42.4
2019-01-05T04:39:35.459Z,42.4
2019-01-05T04:40:25.977Z,42.4
2019-01-05T04:41:15.697Z,42.4
2019-01-05T04:42:06.245Z,42.3
2019-01-05T04:42:54.287Z,42.2
2019-01-05T04:43:45.787Z,42.1
2019-01-05T04:44:35.326Z,42.1
2019-01-05T04:45:26.894Z,42
2019-01-05T05:02:47.006Z,42.4
2019-01-05T05:03:35.103Z,42.3
2019-01-05T05:04:25.144Z,42.2
2019-01-05T05:05:15.758Z,42.1
2019-01-05T05:06:05.465Z,42
2019-01-05T05:06:55.325Z,42
2019-01-05T05:07:46.625Z,41.9
2019-01-05T05:08:35.983Z,41.9
2019-01-05T05:09:24.098Z,41.8
2019-01-05T05:10:16.131Z,41.7
2019-01-05T05:11:04.935Z,41.5
2019-01-05T05:11:55.103Z,41.2
2019-01-05T05:12:46.635Z,40.8
2019-01-05T05:13:35.406Z,40.3
2019-01-05T05:14:25.286Z,40.8
2019-01-05T05:15:16.164Z,41.2
2019-01-05T05:16:06.515Z,41.2
2019-01-05T05:16:56.058Z,41.1
2019-01-05T05:17:46.805Z,40.9
2019-01-05T05:18:37.210Z,40.5
2019-01-05T05:19:25.557Z,40.1
2019-01-05T05:20:17.340Z,39.6
2019-01-05T05:21:05.437Z,39.1
2019-01-05T05:21:55.879Z,38.6
2019-01-05T05:22:46.203Z,38.1
2019-01-05T05:23:36.515Z,37.6
2019-01-05T05:24:26.517Z,37.1
2019-01-05T05:25:17.351Z,36.8
2019-01-05T05:26:06.092Z,36.4
2019-01-05T05:26:56.132Z,36.3
2019-01-05T05:27:46.557Z,36.2
2019-01-05T05:28:37.678Z,36.1
2019-01-05T05:29:26.212Z,36.2
2019-01-05T05:30:17.217Z,36.3
2019-01-05T05:31:07.026Z,36.3
2019-01-05T05:31:57.512Z,36.4
2019-01-05T05:32:47.181Z,36.6
2019-01-05T05:33:37.061Z,36.6
2019-01-05T05:34:27.696Z,36.8
2019-01-05T05:35:17.439Z,36.8
2019-01-05T05:36:06.952Z,36.9
2019-01-05T05:36:57.049Z,36.9
2019-01-05T05:37:47.896Z,36.9
2019-01-05T05:38:37.413Z,37
2019-01-05T05:39:27.748Z,37.1
2019-01-05T05:40:17.334Z,37.1
2019-01-05T05:41:07.046Z,37.2
2019-01-05T05:41:57.827Z,37.3
2019-01-05T05:42:47.368Z,37.3
2019-01-05T05:43:39.082Z,37.3
2019-01-05T05:44:28.698Z,37.3
2019-01-05T05:45:18.221Z,37.3
2019-01-05T05:46:08.465Z,37.4
2019-01-05T05:46:57.536Z,37.4
2019-01-05T05:47:48.293Z,37.4
2019-01-05T05:48:37.828Z,37.4
2019-01-05T05:49:29.036Z,37.3
2019-01-05T05:50:17.654Z,37.3
2019-01-05T05:51:08.275Z,37.4
2019-01-05T05:51:58.976Z,37.4
2019-01-05T05:52:49.293Z,37.4
2019-01-05T05:53:38.471Z,37.3
2019-01-05T05:54:27.195Z,37.3
2019-01-05T05:55:18.588Z,37.3
2019-01-05T05:56:08.050Z,37.3
2019-01-05T05:56:59.418Z,37.3
2019-01-05T05:57:48.188Z,37.3
2019-01-05T05:58:38.842Z,37.3
2019-01-05T05:59:28.914Z,37.3
2019-01-05T06:00:18.606Z,37.3
2019-01-05T06:01:09.494Z,37.3
2019-01-05T06:01:58.262Z,37.3
2019-01-05T06:02:48.745Z,37.3
2019-01-05T06:03:39.942Z,37.3
2019-01-05T06:04:30.026Z,37.2
2019-01-05T06:05:19.217Z,37.2
2019-01-05T06:06:09.832Z,37.2
2019-01-05T06:06:58.769Z,37.2
2019-01-05T06:07:48.800Z,37.1
2019-01-05T06:08:39.951Z,37.1
2019-01-05T06:09:29.854Z,37.1
2019-01-05T06:10:20.144Z,37.1
2019-01-05T06:11:10.226Z,37
2019-01-05T06:12:00.251Z,37.1
2019-01-05T06:12:49.689Z,37
2019-01-05T06:13:39.802Z,36.9
2019-01-05T06:14:30.926Z,36.9
2019-01-05T06:15:20.764Z,36.9
2019-01-05T06:16:09.651Z,36.9
2019-01-05T06:16:58.910Z,36.9
2019-01-05T06:17:50.046Z,36.9
2019-01-05T06:18:39.542Z,36.8
2019-01-05T06:19:31.009Z,36.8
2019-01-05T06:20:19.684Z,36.8
2019-01-05T06:21:10.558Z,36.7
2019-01-05T06:21:59.816Z,36.7
2019-01-05T06:22:50.901Z,36.6
2019-01-05T06:23:40.949Z,36.6
2019-01-05T06:24:31.113Z,36.6
2019-01-05T06:25:21.437Z,36.5
2019-01-05T06:26:11.198Z,36.4
2019-01-05T06:27:00.655Z,36.4
2019-01-05T06:27:50.232Z,36.4
2019-01-05T06:28:41.834Z,36.4
2019-01-05T06:29:30.599Z,36.3
2019-01-05T06:30:20.881Z,36.3
2019-01-05T06:31:11.234Z,36.3
2019-01-05T06:32:00.157Z,36.3
2019-01-05T06:32:50.526Z,36.3
2019-01-05T06:33:41.492Z,36.2
2019-01-05T06:34:32.105Z,36.1
2019-01-05T06:35:21.096Z,36.1
2019-01-05T06:36:11.090Z,36.1
2019-01-05T06:37:01.647Z,36.1
2019-01-05T06:37:50.851Z,36
2019-01-05T06:38:41.791Z,35.9
2019-01-05T06:39:31.014Z,35.9
2019-01-05T06:40:22.106Z,35.9
2019-01-05T06:41:12.469Z,35.9
2019-01-05T06:42:01.426Z,35.9
2019-01-05T06:42:52.046Z,35.8
2019-01-05T06:43:41.798Z,35.8
2019-01-05T06:44:33.479Z,35.8
2019-01-05T06:45:22.716Z,35.8
2019-01-05T06:46:11.790Z,35.7
2019-01-05T06:47:01.556Z,35.7
2019-01-05T06:47:52.366Z,35.6
2019-01-05T06:48:42.701Z,35.6
2019-01-05T06:49:32.713Z,35.5
2019-01-05T06:50:22.503Z,35.4
2019-01-05T06:51:13.168Z,35.4
2019-01-05T06:52:02.946Z,35.4
2019-01-05T06:52:51.590Z,35.3
2019-01-05T06:53:42.722Z,35.3
2019-01-05T06:54:32.571Z,35.3
2019-01-05T06:55:23.667Z,35.2
2019-01-05T06:56:12.633Z,35.2
2019-01-05T06:57:03.515Z,35.1
2019-01-05T06:57:52.773Z,35.1
2019-01-05T06:58:42.821Z,35.1
2019-01-05T06:59:32.065Z,35
2019-01-05T07:00:22.870Z,35
2019-01-05T07:01:12.784Z,34.9
2019-01-05T07:02:02.272Z,34.9
2019-01-05T07:02:53.430Z,34.8
2019-01-05T07:03:42.987Z,34.8
2019-01-05T07:04:33.007Z,34.8
2019-01-05T07:05:23.026Z,34.8
2019-01-05T07:06:11.930Z,34.7
2019-01-05T07:07:02.915Z,34.7
2019-01-05T07:07:53.432Z,34.6
2019-01-05T07:08:43.259Z,34.6
2019-01-05T07:09:33.835Z,34.6
2019-01-05T07:10:24.167Z,34.5
2019-01-05T07:11:14.657Z,34.5
2019-01-05T07:12:03.752Z,34.4
2019-01-05T07:12:53.782Z,34.4
2019-01-05T07:13:44.462Z,34.3
2019-01-05T07:14:34.797Z,34.3
2019-01-05T07:15:24.511Z,34.3
2019-01-05T07:16:14.016Z,34.3
2019-01-05T07:17:05.216Z,34.3
2019-01-05T07:17:54.093Z,34.2
2019-01-05T07:18:44.180Z,34.1
2019-01-05T07:19:34.521Z,34.1
2019-01-05T07:20:24.779Z,34.1
2019-01-05T07:21:14.391Z,34.1
2019-01-05T07:22:03.393Z,33.9
2019-01-05T07:22:55.195Z,33.9
2019-01-05T07:23:44.763Z,33.9
2019-01-05T07:24:35.676Z,33.8
2019-01-05T07:25:24.949Z,33.8
2019-01-05T07:26:15.501Z,33.6
2019-01-05T07:27:05.575Z,33.6
2019-01-05T07:27:55.343Z,33.5
2019-01-05T07:28:45.110Z,33.4
2019-01-05T07:29:34.338Z,33.3
2019-01-05T07:30:25.525Z,33.3
2019-01-05T07:31:15.029Z,33.2
2019-01-05T07:32:05.088Z,33.2
2019-01-05T07:32:55.719Z,33.1
2019-01-05T07:33:45.173Z,33.1
2019-01-05T07:34:34.973Z,33.1
2019-01-05T07:35:25.846Z,33.1
2019-01-05T07:36:15.340Z,33.1
2019-01-05T07:37:05.123Z,33.1
2019-01-05T07:37:55.470Z,33.1
2019-01-05T07:38:45.240Z,33.1
2019-01-05T07:39:35.423Z,33.1
2019-01-05T07:40:25.365Z,33
2019-01-05T07:41:15.618Z,33
2019-01-05T07:42:05.992Z,33
2019-01-05T07:42:55.265Z,33
2019-01-05T07:43:45.970Z,33
2019-01-05T07:44:36.455Z,33
2019-01-05T07:45:26.020Z,33
2019-01-05T07:46:15.553Z,33
2019-01-05T07:47:06.135Z,33
2019-01-05T07:47:55.630Z,32.9
2019-01-05T07:48:47.066Z,32.9
2019-01-05T07:49:36.572Z,32.9
2019-01-05T07:50:26.892Z,32.9
2019-01-05T07:51:16.411Z,32.8
2019-01-05T07:52:06.542Z,32.8
2019-01-05T07:52:56.756Z,32.8
2019-01-05T07:53:47.396Z,32.7
2019-01-05T07:54:37.427Z,32.7
2019-01-05T07:55:27.307Z,32.6
2019-01-05T07:56:17.234Z,32.6
2019-01-05T07:57:06.834Z,32.6
2019-01-05T07:57:56.856Z,32.5
2019-01-05T07:58:47.169Z,32.5
2019-01-05T07:59:38.054Z,32.4
2019-01-05T08:00:28.098Z,32.4
2019-01-05T08:01:16.795Z,32.4
2019-01-05T08:02:07.460Z,32.3
2019-01-05T08:02:57.490Z,32.3
2019-01-05T08:03:47.511Z,32.3
2019-01-05T08:04:36.808Z,32.3
2019-01-05T08:05:27.435Z,32.2
2019-01-05T08:06:18.302Z,32.1
2019-01-05T08:07:08.032Z,32.1
2019-01-05T08:07:57.956Z,32.1
2019-01-05T08:08:47.111Z,32
2019-01-05T08:09:37.705Z,32
2019-01-05T08:10:27.481Z,32
2019-01-05T08:11:16.643Z,31.9
2019-01-05T08:12:07.593Z,31.9
2019-01-05T08:12:57.658Z,31.9
2019-01-05T08:13:47.671Z,31.8
2019-01-05T08:14:37.437Z,31.8
2019-01-05T08:15:28.650Z,31.7
2019-01-05T08:16:18.658Z,31.6
2019-01-05T08:17:08.420Z,31.6
2019-01-05T08:17:57.922Z,31.6
2019-01-05T08:18:48.618Z,31.6
2019-01-05T08:19:38.028Z,31.6
2019-01-05T08:20:28.422Z,31.6
2019-01-05T08:21:17.870Z,31.5
2019-01-05T08:22:09.025Z,31.4
2019-01-05T08:22:58.717Z,31.4
2019-01-05T08:23:48.616Z,31.4
2019-01-05T08:24:39.207Z,31.3
2019-01-05T08:25:28.177Z,31.3
2019-01-05T08:26:18.335Z,31.1
2019-01-05T08:27:08.897Z,30.8
2019-01-05T08:27:58.594Z,30.3
2019-01-05T08:28:49.542Z,29.9
2019-01-05T08:29:39.340Z,29.7
2019-01-05T08:30:29.110Z,29.7
2019-01-05T08:31:19.404Z,29.7
2019-01-05T08:32:09.781Z,29.8
2019-01-05T08:32:58.658Z,29.9
2019-01-05T08:33:50.384Z,29.9
2019-01-05T08:34:38.542Z,30
2019-01-05T08:35:29.856Z,30.1
2019-01-05T08:36:18.744Z,30.1
2019-01-05T08:37:08.450Z,30.2
2019-01-05T08:37:59.354Z,30.3
2019-01-05T08:38:49.332Z,30.3
2019-01-05T08:39:40.354Z,30.3
2019-01-05T08:40:29.799Z,30.3
2019-01-05T08:41:19.016Z,30.4
2019-01-05T08:42:10.814Z,30.4
2019-01-05T08:42:59.008Z,30.4
2019-01-05T08:43:49.269Z,30.3
2019-01-05T08:44:39.236Z,30.3
2019-01-05T08:45:29.873Z,30.3
2019-01-05T08:46:20.166Z,30.3
2019-01-05T08:47:10.262Z,30.3
2019-01-05T08:47:59.806Z,30.3
2019-01-05T08:48:50.398Z,30.3
2019-01-05T08:49:39.628Z,30.2
2019-01-05T08:50:30.788Z,30.2
2019-01-05T08:51:20.801Z,30.1
2019-01-05T08:52:10.316Z,30.1
2019-01-05T08:53:00.443Z,30.1
2019-01-05T08:53:50.673Z,30
2019-01-05T08:54:39.733Z,30
2019-01-05T08:55:29.683Z,29.9
2019-01-05T08:56:20.588Z,29.9
2019-01-05T08:57:09.795Z,29.9
2019-01-05T08:57:59.912Z,29.9
2019-01-05T08:58:50.786Z,29.8
2019-01-05T08:59:41.606Z,29.8
2019-01-05T09:00:31.993Z,29.8
2019-01-05T09:01:20.320Z,29.7
2019-01-05T09:17:12.478Z,29.1
2019-01-05T09:18:02.512Z,29.2
2019-01-05T09:18:51.816Z,29.3
2019-01-05T09:19:42.329Z,29.5
2019-01-05T09:20:32.681Z,29.8
2019-01-05T09:21:22.444Z,29.9
2019-01-05T09:22:12.706Z,30.3
2019-01-05T09:23:02.914Z,30.6
2019-01-05T09:23:52.679Z,31.1
2019-01-05T09:24:41.854Z,31.5
2019-01-05T09:25:33.006Z,32
2019-01-05T09:26:22.764Z,32.6
2019-01-05T09:27:12.581Z,33.2
2019-01-05T09:28:02.856Z,36.6
2019-01-05T09:28:53.001Z,38.9
2019-01-05T09:29:43.290Z,40.6
2019-01-05T09:30:31.966Z,41.7
2019-01-05T09:31:23.124Z,42.4
2019-01-05T09:32:12.598Z,42.4
2019-01-05T09:33:02.674Z,41.9
2019-01-05T09:33:53.293Z,41.1
2019-01-05T09:34:43.646Z,40.1
2019-01-05T09:35:32.605Z,39.3
2019-01-05T09:36:23.735Z,38.6
2019-01-05T09:37:13.391Z,37.8
2019-01-05T09:38:02.791Z,37.1
2019-01-05T09:38:53.935Z,36.6
2019-01-05T09:39:43.193Z,36.1
2019-01-05T09:40:33.338Z,36.1
2019-01-05T09:41:24.081Z,38.4
2019-01-05T09:42:13.746Z,39.9
2019-01-05T09:43:03.478Z,40.9
2019-01-05T09:43:54.518Z,41.6
2019-01-05T09:44:43.204Z,41.9
2019-01-05T09:45:34.405Z,41.9
2019-01-05T09:46:23.045Z,41.5
2019-01-05T09:47:14.150Z,40.9
2019-01-05T09:48:04.912Z,40.2
2019-01-05T09:48:54.304Z,39.6
2019-01-05T09:49:44.653Z,39
2019-01-05T09:50:33.055Z,38.3
2019-01-05T09:51:24.489Z,37.8
2019-01-05T09:52:14.850Z,37.6
2019-01-05T09:53:04.335Z,39.3
2019-01-05T09:53:54.662Z,40.2
2019-01-05T09:54:44.220Z,40.8
2019-01-05T09:55:33.969Z,41
2019-01-05T09:56:22.077Z,41.1
2019-01-05T09:57:14.282Z,41
2019-01-05T09:58:05.422Z,40.7
2019-01-05T09:58:54.442Z,40.3
2019-01-05T09:59:45.139Z,39.8
2019-01-05T10:00:34.837Z,40.1
2019-01-05T10:01:25.252Z,40.9
2019-01-05T10:02:14.717Z,41.1
2019-01-05T10:03:03.234Z,41.2
2019-01-05T10:03:55.444Z,41
2019-01-05T10:04:44.329Z,40.8
2019-01-05T10:05:36.081Z,40.4
2019-01-05T10:06:25.076Z,39.9
2019-01-05T10:07:16.154Z,39.6
2019-01-05T10:08:06.238Z,40.7
2019-01-05T10:08:55.456Z,41.2
2019-01-05T10:09:45.259Z,41.4
2019-01-05T10:10:35.282Z,41.4
2019-01-05T10:11:25.381Z,41.3
2019-01-05T10:12:15.378Z,41.1
2019-01-05T10:13:06.621Z,40.7
2019-01-05T10:13:56.063Z,40.2
2019-01-05T10:14:46.116Z,40.1
2019-01-05T10:15:36.491Z,41
2019-01-05T10:16:26.258Z,41.4
2019-01-05T10:17:15.768Z,41.4
2019-01-05T10:18:07.504Z,41.4
2019-01-05T10:18:55.026Z,41.2
2019-01-05T10:19:46.426Z,40.9
2019-01-05T10:20:35.683Z,40.5
2019-01-05T10:21:26.056Z,40
2019-01-05T10:22:16.673Z,40
2019-01-05T10:23:07.525Z,40.9
2019-01-05T10:23:57.300Z,41.4
2019-01-05T10:24:46.018Z,41.6
2019-01-05T10:25:36.011Z,41.8
2019-01-05T10:26:26.418Z,41.7
2019-01-05T10:27:15.869Z,41.5
2019-01-05T10:28:06.533Z,41.2
2019-01-05T10:28:56.578Z,40.8
2019-01-05T10:29:47.133Z,40.3
2019-01-05T10:30:37.215Z,40.8
2019-01-05T10:31:27.239Z,41.3
2019-01-05T10:32:17.268Z,41.6
2019-01-05T10:33:06.915Z,41.6
2019-01-05T10:33:57.450Z,41.5
2019-01-05T10:34:47.195Z,41.3
2019-01-05T10:35:37.282Z,41
2019-01-05T10:36:27.007Z,40.6
2019-01-05T10:37:16.815Z,40.1
2019-01-05T10:38:07.424Z,40.8
2019-01-05T10:38:57.715Z,41.4
2019-01-05T10:39:47.802Z,41.8
2019-01-05T10:40:37.305Z,41.9
2019-01-05T10:41:27.419Z,41.9
2019-01-05T10:42:17.556Z,41.8
2019-01-05T10:43:07.594Z,41.5
2019-01-05T10:43:58.397Z,41.1
2019-01-05T10:44:46.780Z,40.7
2019-01-05T10:45:38.484Z,40.3
2019-01-05T10:46:27.718Z,40.1
2019-01-05T10:47:18.024Z,40.9
2019-01-05T10:48:08.968Z,41.3
2019-01-05T10:48:58.724Z,41.4
2019-01-05T10:49:47.699Z,41.5
2019-01-05T10:50:37.769Z,41.4
2019-01-05T10:51:27.781Z,41.3
2019-01-05T10:52:17.306Z,41
2019-01-05T10:53:07.634Z,40.7
2019-01-05T10:53:58.269Z,40.6
2019-01-05T10:54:48.264Z,41.4
2019-01-05T10:55:38.624Z,41.7
2019-01-05T10:56:27.568Z,41.9
2019-01-05T10:57:19.151Z,41.9
2019-01-05T10:58:08.585Z,41.8
2019-01-05T10:58:59.670Z,41.6
2019-01-05T10:59:49.179Z,41.3
2019-01-05T11:00:38.684Z,40.9
2019-01-05T11:01:29.408Z,40.5
2019-01-05T11:02:19.159Z,41.3
2019-01-05T11:03:08.615Z,41.7
2019-01-05T11:04:00.998Z,41.9
2019-01-05T11:04:49.266Z,41.9
2019-01-05T11:05:38.556Z,41.9
2019-01-05T11:06:28.866Z,41.8
2019-01-05T11:07:19.690Z,41.5
2019-01-05T11:08:09.180Z,41.1
2019-01-05T11:08:59.861Z,40.8
2019-01-05T11:09:48.133Z,41.2
2019-01-05T11:10:39.653Z,41.6
2019-01-05T11:11:29.404Z,41.9
2019-01-05T11:12:20.020Z,41.9
2019-01-05T11:13:08.787Z,41.9
2019-01-05T11:14:00.397Z,41.8
2019-01-05T11:14:51.350Z,41.5
2019-01-05T11:15:39.954Z,41.1
2019-01-05T11:16:30.052Z,40.7
2019-01-05T11:17:20.510Z,40.7
2019-01-05T11:18:10.968Z,41.3
2019-01-05T11:19:02.111Z,41.6
2019-01-05T11:19:50.535Z,41.7
2019-01-05T11:20:44.356Z,41.7
2019-01-05T11:21:31.274Z,41.6
2019-01-05T11:22:20.845Z,41.4
2019-01-05T11:23:11.067Z,41.1
2019-01-05T11:24:01.464Z,40.6
2019-01-05T11:24:50.052Z,41.1
2019-01-05T11:25:40.741Z,41.6
2019-01-05T11:26:31.088Z,41.8
2019-01-05T11:27:20.782Z,41.9
2019-01-05T11:28:10.882Z,41.9
2019-01-05T11:29:00.949Z,41.8
2019-01-05T11:29:50.992Z,41.6
2019-01-05T11:30:40.477Z,41.3
2019-01-05T11:31:31.813Z,40.9
2019-01-05T11:32:22.630Z,41.1
2019-01-05T11:33:11.842Z,41.6
2019-01-05T11:34:02.450Z,41.9
2019-01-05T11:34:51.867Z,42.1
2019-01-05T11:35:41.391Z,42.1
2019-01-05T11:36:31.751Z,42.1
2019-01-05T11:37:21.231Z,41.9
2019-01-05T11:38:11.851Z,41.7
2019-01-05T11:39:03.053Z,41.4
2019-01-05T11:39:51.695Z,40.9
2019-01-05T11:40:41.209Z,40.8
2019-01-05T11:41:32.348Z,41.5
2019-01-05T11:42:22.294Z,41.9
2019-01-05T11:43:12.264Z,42.2
2019-01-05T11:44:02.301Z,42.3
2019-01-05T11:44:52.035Z,42.3
2019-01-05T11:45:41.951Z,42.2
2019-01-05T11:46:32.798Z,41.9
2019-01-05T11:47:22.471Z,41.6
2019-01-05T11:48:13.068Z,41.2
2019-01-05T11:49:02.597Z,40.8
2019-01-05T11:49:53.494Z,40.3
2019-01-05T11:50:42.388Z,40.8
2019-01-05T11:51:32.255Z,41.4
2019-01-05T11:52:22.558Z,41.8
2019-01-05T11:53:12.845Z,42.1
2019-01-05T11:54:03.298Z,42.3
2019-01-05T11:54:52.153Z,42.3
2019-01-05T11:55:43.080Z,42.1
2019-01-05T11:56:33.100Z,41.9
2019-01-05T11:57:23.233Z,41.6
2019-01-05T11:58:13.262Z,41.1